Marple Township, Pennsylvania
Current Conditions -  °F | °C
As of 5:54 AM on Friday 31 Oct 2014 (Local Time) from KPHL Reporting Station
Few Clouds Few Clouds  
Wind Chill: 36°   Ceiling: Unl
Heat Index: 41°   Visibility: 10mi
Dew Point: 33°   Wind: 8mph
Humidity: 73%   Direction: 330°NNW
Pressure: 30.03"   Gusts: NA
Location:  39.9737°N, 75.3608°W
Report Text: KPHL 310954Z 33007KT 10SM FEW055 05/01 A3003 RMK AO2 SLP168 T00500006
Loading
Personal Weather Stations






























Interactive Weather Map
Tropical Storm Tracking
New forecast layout! Learn more

10-Day Weather Forecast

Advertisements
Track Severe Weather on mobile